Time;durP1;ratioP1;P1;durP2;ratioP2;P2;SDS_P1;SDS_P2;PMS_P1;PMS_P2;Temp;Humidity;BMP_temperature;BMP_pressure;BME280_temperature;BME280_humidity;BME280_pressure;Samples;Min_cycle;Max_cycle;Signal;HPM_P1;HPM_P2
2021/01/15 00:00:15;;;;;;;21.57;13.23;;;;;;;;;;5091463;28;20959;-51
2021/01/15 00:02:41;;;;;;;17.58;11.10;;;;;;;;;;5091984;28;20432;-51
2021/01/15 00:05:07;;;;;;;15.77;11.40;;;;;;;;;;5091347;28;20172;-50
2021/01/15 00:07:33;;;;;;;16.23;10.40;;;;;;;;;;5092271;28;20392;-51
2021/01/15 00:09:59;;;;;;;17.17;10.70;;;;;;;;;;5091694;28;20256;-48
2021/01/15 00:12:25;;;;;;;13.23;9.47;;;;;;;;;;5092274;28;20472;-48
2021/01/15 00:14:51;;;;;;;14.73;10.80;;;;;;;;;;5090384;28;20435;-48
2021/01/15 00:17:17;;;;;;;17.37;11.20;;;;;;;;;;5092120;28;20415;-48
2021/01/15 00:19:43;;;;;;;14.30;9.67;;;;;;;;;;5091618;28;20442;-48
2021/01/15 00:22:09;;;;;;;14.20;10.30;;;;;;;;;;5092244;28;20445;-48
2021/01/15 00:24:35;;;;;;;13.20;9.30;;;;;;;;;;5091557;28;20423;-47
2021/01/15 00:27:01;;;;;;;14.13;9.97;;;;;;;;;;5092034;28;20913;-48
2021/01/15 00:29:27;;;;;;;12.77;8.70;;;;;;;;;;5090027;28;20435;-48
2021/01/15 00:31:53;;;;;;;12.40;9.27;;;;;;;;;;5091923;28;20790;-48
2021/01/15 00:34:19;;;;;;;11.37;8.67;;;;;;;;;;5091610;28;20252;-49
2021/01/15 00:36:46;;;;;;;12.32;8.27;;;;;;;;;;5091930;28;20398;-48
2021/01/15 00:39:15;;;;;;;13.20;7.82;;;;;;;;;;5091505;28;20185;-48
2021/01/15 00:41:43;;;;;;;14.63;8.70;;;;;;;;;;5090114;28;20200;-49
2021/01/15 00:44:09;;;;;;;17.35;8.40;;;;;;;;;;5091173;28;20642;-49
2021/01/15 00:46:36;;;;;;;11.10;8.63;;;;;;;;;;5090740;28;20180;-48
2021/01/15 00:49:05;;;;;;;13.55;8.60;;;;;;;;;;5091176;28;20180;-48
2021/01/15 00:51:32;;;;;;;13.57;8.73;;;;;;;;;;5091473;28;20212;-48
2021/01/15 00:53:59;;;;;;;12.90;9.43;;;;;;;;;;5091001;28;20170;-47
2021/01/15 00:56:25;;;;;;;12.05;7.80;;;;;;;;;;5088404;28;20177;-51
2021/01/15 00:58:51;;;;;;;11.70;8.43;;;;;;;;;;5090764;28;20192;-53
2021/01/15 01:01:18;;;;;;;11.85;8.85;;;;;;;;;;5090191;28;20270;-50
2021/01/15 01:03:44;;;;;;;11.13;7.70;;;;;;;;;;5091592;28;20165;-48
2021/01/15 01:06:11;;;;;;;10.70;7.25;;;;;;;;;;5089228;28;20167;-48
2021/01/15 01:08:37;;;;;;;10.13;6.80;;;;;;;;;;5091281;28;20177;-51
2021/01/15 01:11:03;;;;;;;10.02;7.60;;;;;;;;;;5090128;28;20209;-51
2021/01/15 01:13:29;;;;;;;14.00;8.63;;;;;;;;;;5090136;28;20205;-53
2021/01/15 01:15:55;;;;;;;11.75;8.57;;;;;;;;;;5091011;28;20161;-50
2021/01/15 01:18:21;;;;;;;12.50;8.00;;;;;;;;;;5090434;28;20668;-49
2021/01/15 01:20:47;;;;;;;13.00;8.37;;;;;;;;;;5090068;28;20185;-51
2021/01/15 01:23:13;;;;;;;11.70;8.10;;;;;;;;;;5091100;28;20416;-51
2021/01/15 01:25:39;;;;;;;14.53;9.87;;;;;;;;;;5090125;28;20461;-51
2021/01/15 01:28:05;;;;;;;11.97;8.97;;;;;;;;;;5090067;28;20943;-48
2021/01/15 01:30:31;;;;;;;15.30;8.13;;;;;;;;;;5089789;28;20462;-48
2021/01/15 01:32:57;;;;;;;9.60;7.60;;;;;;;;;;5090828;28;20460;-48
2021/01/15 01:35:23;;;;;;;12.47;8.60;;;;;;;;;;5090318;28;21640;-48
2021/01/15 01:37:49;;;;;;;14.27;8.53;;;;;;;;;;5090858;28;20396;-49
2021/01/15 01:40:15;;;;;;;12.90;9.77;;;;;;;;;;5090172;28;20458;-48
2021/01/15 01:42:42;;;;;;;12.68;9.52;;;;;;;;;;5090753;28;20442;-50
2021/01/15 01:45:08;;;;;;;10.45;8.30;;;;;;;;;;5090424;28;20672;-48
2021/01/15 01:47:34;;;;;;;13.65;8.18;;;;;;;;;;5089597;28;20166;-50
2021/01/15 01:50:00;;;;;;;12.00;8.23;;;;;;;;;;5090752;28;20716;-51
2021/01/15 01:52:26;;;;;;;10.27;8.10;;;;;;;;;;5089955;28;20463;-51
2021/01/15 01:54:52;;;;;;;11.50;8.03;;;;;;;;;;5090683;28;20415;-48
2021/01/15 01:57:18;;;;;;;11.88;8.35;;;;;;;;;;5091973;28;20462;-49
2021/01/15 01:59:44;;;;;;;10.87;8.10;;;;;;;;;;5092979;28;20738;-50
2021/01/15 02:02:10;;;;;;;13.33;9.60;;;;;;;;;;5094392;28;20442;-51
2021/01/15 02:04:36;;;;;;;11.30;8.57;;;;;;;;;;5093665;28;20459;-48
2021/01/15 02:07:02;;;;;;;12.50;8.67;;;;;;;;;;5094243;28;20415;-48
2021/01/15 02:09:50;;;;;;;13.10;8.70;;;;;;;;;;5093903;28;20435;-48
2021/01/15 02:12:19;;;;;;;15.52;9.80;;;;;;;;;;5093475;28;20477;-47
2021/01/15 02:15:00;;;;;;;10.52;8.63;;;;;;;;;;5094631;28;20184;-48
2021/01/15 02:17:27;;;;;;;11.68;8.85;;;;;;;;;;5093987;28;20250;-48
2021/01/15 02:20:04;;;;;;;13.60;9.95;;;;;;;;;;5094551;28;20177;-53
2021/01/15 02:22:36;;;;;;;12.13;9.23;;;;;;;;;;5093863;28;20820;-52
2021/01/15 02:25:02;;;;;;;15.35;9.75;;;;;;;;;;5094652;28;20273;-48
2021/01/15 02:27:31;;;;;;;15.17;10.27;;;;;;;;;;5092812;28;20622;-48
2021/01/15 02:30:09;;;;;;;13.70;9.32;;;;;;;;;;5094807;28;21187;-49
2021/01/15 02:32:45;;;;;;;14.40;9.38;;;;;;;;;;5093616;28;20251;-51
2021/01/15 02:35:30;;;;;;;11.05;8.00;;;;;;;;;;5094441;28;20650;-52
2021/01/15 02:37:56;;;;;;;12.60;9.23;;;;;;;;;;5093671;28;20218;-48
2021/01/15 02:40:29;;;;;;;12.50;9.20;;;;;;;;;;5092324;28;20173;-50
2021/01/15 02:42:55;;;;;;;16.17;11.70;;;;;;;;;;5093190;28;20942;-48
2021/01/15 02:45:23;;;;;;;14.82;10.48;;;;;;;;;;5093855;28;20672;-50
2021/01/15 02:47:50;;;;;;;14.77;10.02;;;;;;;;;;5093008;28;20181;-49
2021/01/15 02:50:17;;;;;;;16.63;10.75;;;;;;;;;;5094074;28;20181;-48
2021/01/15 02:52:43;;;;;;;19.40;10.48;;;;;;;;;;5093244;28;20205;-48
2021/01/15 02:55:12;;;;;;;16.70;10.32;;;;;;;;;;5092236;28;20331;-49
2021/01/15 02:57:39;;;;;;;19.15;10.65;;;;;;;;;;5092833;28;20222;-50
2021/01/15 03:00:06;;;;;;;16.27;10.57;;;;;;;;;;5093864;28;20157;-48
2021/01/15 03:02:39;;;;;;;16.33;10.68;;;;;;;;;;5092832;28;20195;-49
2021/01/15 03:05:10;;;;;;;19.17;11.60;;;;;;;;;;5093820;28;20193;-51
2021/01/15 03:07:37;;;;;;;19.60;10.82;;;;;;;;;;5092394;28;20238;-48
2021/01/15 03:10:05;;;;;;;20.42;11.73;;;;;;;;;;5091262;28;20177;-48
2021/01/15 03:12:31;;;;;;;21.30;11.52;;;;;;;;;;5092229;28;20209;-51
2021/01/15 03:14:58;;;;;;;18.25;11.70;;;;;;;;;;5093660;28;20647;-48
2021/01/15 03:17:31;;;;;;;22.70;11.98;;;;;;;;;;5092384;28;20219;-51
2021/01/15 03:19:57;;;;;;;23.23;13.93;;;;;;;;;;5093554;28;20173;-49
2021/01/15 03:22:23;;;;;;;23.38;13.20;;;;;;;;;;5091488;28;20205;-49
2021/01/15 03:24:52;;;;;;;19.30;13.07;;;;;;;;;;5093375;28;20538;-50
2021/01/15 03:27:19;;;;;;;19.15;12.77;;;;;;;;;;5092239;28;20235;-48
2021/01/15 03:29:45;;;;;;;24.92;13.43;;;;;;;;;;5091584;28;20196;-48
2021/01/15 03:32:12;;;;;;;24.60;13.90;;;;;;;;;;5093282;28;20288;-48
2021/01/15 03:34:38;;;;;;;21.13;14.45;;;;;;;;;;5092408;28;20185;-50
2021/01/15 03:37:04;;;;;;;21.65;13.80;;;;;;;;;;5091004;28;20178;-51
2021/01/15 03:39:30;;;;;;;21.92;14.00;;;;;;;;;;5093003;28;20165;-51
2021/01/15 03:41:56;;;;;;;25.03;15.83;;;;;;;;;;5092347;28;20208;-48
2021/01/15 03:44:22;;;;;;;31.02;16.23;;;;;;;;;;5091832;28;20434;-48
2021/01/15 03:46:52;;;;;;;26.02;16.30;;;;;;;;;;5092815;28;20248;-48
2021/01/15 03:49:18;;;;;;;24.40;14.70;;;;;;;;;;5092213;28;20169;-48
2021/01/15 03:51:44;;;;;;;29.55;15.85;;;;;;;;;;5091723;28;20247;-48
2021/01/15 03:54:10;;;;;;;29.93;18.17;;;;;;;;;;5092795;28;20646;-48
2021/01/15 03:56:36;;;;;;;23.97;15.20;;;;;;;;;;5091729;28;20760;-48
2021/01/15 03:59:02;;;;;;;26.03;16.10;;;;;;;;;;5091951;28;20779;-49
2021/01/15 04:01:27;;;;;;;33.30;18.53;;;;;;;;;;5092737;28;20463;-48
2021/01/15 04:03:53;;;;;;;29.57;17.10;;;;;;;;;;5091851;28;20426;-50
2021/01/15 04:06:23;;;;;;;27.43;17.40;;;;;;;;;;5091235;28;20433;-50
2021/01/15 04:08:49;;;;;;;33.10;17.85;;;;;;;;;;5092557;28;20453;-52
2021/01/15 04:11:15;;;;;;;37.20;17.83;;;;;;;;;;5091519;28;20186;-51
2021/01/15 04:13:41;;;;;;;28.08;17.73;;;;;;;;;;5091532;28;20531;-51
2021/01/15 04:16:07;;;;;;;34.80;18.83;;;;;;;;;;5092121;28;20752;-51
2021/01/15 04:18:33;;;;;;;32.00;19.07;;;;;;;;;;5091706;28;20400;-48
2021/01/15 04:21:05;;;;;;;32.90;18.23;;;;;;;;;;5091082;28;20516;-48
2021/01/15 04:23:31;;;;;;;32.17;19.08;;;;;;;;;;5092643;28;20400;-48
2021/01/15 04:25:57;;;;;;;32.90;18.53;;;;;;;;;;5091171;28;20586;-48
2021/01/15 04:28:23;;;;;;;31.60;19.23;;;;;;;;;;5091176;28;20829;-48
2021/01/15 04:30:49;;;;;;;32.20;19.90;;;;;;;;;;5090138;28;20428;-49
2021/01/15 04:33:15;;;;;;;34.97;19.30;;;;;;;;;;5091243;28;20467;-49
2021/01/15 04:35:40;;;;;;;31.20;17.70;;;;;;;;;;5091758;28;20403;-48
2021/01/15 04:38:06;;;;;;;29.90;17.90;;;;;;;;;;5090968;28;20477;-50
2021/01/15 04:40:32;;;;;;;34.60;16.87;;;;;;;;;;5092192;28;20395;-52
2021/01/15 04:43:00;;;;;;;31.13;18.50;;;;;;;;;;5090613;28;20447;-51
2021/01/15 04:45:27;;;;;;;34.28;19.48;;;;;;;;;;5092266;28;20965;-49
2021/01/15 04:47:54;;;;;;;31.25;18.85;;;;;;;;;;5090855;28;20591;-48
2021/01/15 04:50:20;;;;;;;32.83;18.67;;;;;;;;;;5091707;28;20198;-50
2021/01/15 04:52:50;;;;;;;28.80;17.60;;;;;;;;;;5090795;28;20193;-51
2021/01/15 04:55:17;;;;;;;28.00;17.80;;;;;;;;;;5091537;28;20170;-48
2021/01/15 04:57:44;;;;;;;31.10;18.50;;;;;;;;;;5088642;28;20234;-48
2021/01/15 05:00:10;;;;;;;38.17;20.15;;;;;;;;;;5091672;28;20165;-48
2021/01/15 05:02:38;;;;;;;34.92;20.48;;;;;;;;;;5090560;28;20284;-48
2021/01/15 05:05:08;;;;;;;29.40;18.20;;;;;;;;;;5091427;28;20268;-48
2021/01/15 05:07:35;;;;;;;32.75;18.80;;;;;;;;;;5090496;28;20185;-48
2021/01/15 05:10:02;;;;;;;34.40;19.98;;;;;;;;;;5091456;28;20165;-49
2021/01/15 05:12:30;;;;;;;36.50;20.65;;;;;;;;;;5088596;28;20301;-51
2021/01/15 05:14:56;;;;;;;32.00;18.77;;;;;;;;;;5091407;28;20216;-50
2021/01/15 05:17:26;;;;;;;34.30;19.90;;;;;;;;;;5090450;28;20183;-48
2021/01/15 05:19:55;;;;;;;38.45;20.63;;;;;;;;;;5091410;28;20192;-48
2021/01/15 05:22:21;;;;;;;31.52;18.45;;;;;;;;;;5090480;28;20202;-51
2021/01/15 05:24:47;;;;;;;33.10;19.20;;;;;;;;;;5091185;28;20272;-49
2021/01/15 05:30:14;;;;;;;35.00;19.92;;;;;;;;;;5091258;28;20238;-51
2021/01/15 05:32:40;;;;;;;39.95;18.73;;;;;;;;;;5089865;28;20205;-48
2021/01/15 05:35:06;;;;;;;31.47;18.17;;;;;;;;;;5091020;28;20194;-48
2021/01/15 05:37:33;;;;;;;31.88;19.40;;;;;;;;;;5090058;28;20496;-48
2021/01/15 05:39:59;;;;;;;36.40;20.75;;;;;;;;;;5089909;28;20234;-51
2021/01/15 05:42:25;;;;;;;34.95;20.67;;;;;;;;;;5089833;28;20197;-51
2021/01/15 05:44:51;;;;;;;34.83;17.80;;;;;;;;;;5090770;28;20728;-51
2021/01/15 05:47:17;;;;;;;35.60;19.37;;;;;;;;;;5089897;28;20435;-48
2021/01/15 05:49:56;;;;;;;35.03;19.80;;;;;;;;;;5090772;28;20405;-48
2021/01/15 05:52:22;;;;;;;39.80;21.20;;;;;;;;;;5088794;28;20212;-50
2021/01/15 05:54:49;;;;;;;34.10;20.23;;;;;;;;;;5090667;28;20641;-51
2021/01/15 05:57:27;;;;;;;37.33;19.90;;;;;;;;;;5088991;28;20412;-48
2021/01/15 05:59:53;;;;;;;37.20;20.65;;;;;;;;;;5090682;28;20161;-48
2021/01/15 06:02:19;;;;;;;35.03;18.27;;;;;;;;;;5089731;28;20615;-47
2021/01/15 06:04:45;;;;;;;35.60;20.47;;;;;;;;;;5088901;28;20431;-50
2021/01/15 06:07:11;;;;;;;36.55;19.75;;;;;;;;;;5089077;28;20461;-48
2021/01/15 06:09:37;;;;;;;34.77;17.17;;;;;;;;;;5090737;28;20173;-48
2021/01/15 06:12:14;;;;;;;33.47;20.38;;;;;;;;;;5086492;28;20467;-48
2021/01/15 06:14:49;;;;;;;41.03;21.83;;;;;;;;;;5090888;28;20173;-52
2021/01/15 06:17:19;;;;;;;35.80;19.45;;;;;;;;;;5089622;28;20649;-48
2021/01/15 06:19:45;;;;;;;35.97;19.98;;;;;;;;;;5089817;28;20169;-50
2021/01/15 06:22:29;;;;;;;37.00;21.57;;;;;;;;;;5090699;28;20256;-49
2021/01/15 06:25:04;;;;;;;38.13;22.15;;;;;;;;;;5090238;28;20420;-48
2021/01/15 06:27:34;;;;;;;40.92;21.73;;;;;;;;;;5089411;28;20653;-48
2021/01/15 06:30:02;;;;;;;41.65;22.90;;;;;;;;;;5090556;28;20176;-48
2021/01/15 06:32:28;;;;;;;41.67;23.00;;;;;;;;;;5089117;28;20280;-48
2021/01/15 06:34:54;;;;;;;42.80;22.03;;;;;;;;;;5090582;28;20651;-48
2021/01/15 06:37:20;;;;;;;42.58;20.25;;;;;;;;;;5089376;28;20477;-48
2021/01/15 06:40:06;;;;;;;41.63;21.02;;;;;;;;;;5090586;28;20211;-48
2021/01/15 06:42:42;;;;;;;39.70;21.33;;;;;;;;;;5089400;28;20197;-48
2021/01/15 06:45:13;;;;;;;37.50;20.90;;;;;;;;;;5091905;28;20176;-48
2021/01/15 06:47:40;;;;;;;42.92;22.30;;;;;;;;;;5094060;28;20574;-51
2021/01/15 06:50:07;;;;;;;37.80;20.60;;;;;;;;;;5093364;28;20177;-48
2021/01/15 06:52:37;;;;;;;35.35;19.35;;;;;;;;;;5093828;28;20232;-48
2021/01/15 06:55:04;;;;;;;40.85;21.27;;;;;;;;;;5093204;28;20190;-48
2021/01/15 06:57:36;;;;;;;38.50;21.42;;;;;;;;;;5092608;28;20239;-49
2021/01/15 07:00:04;;;;;;;36.35;20.13;;;;;;;;;;5092353;28;20209;-48
2021/01/15 07:02:52;;;;;;;40.08;20.45;;;;;;;;;;5093750;28;20228;-49
2021/01/15 07:05:22;;;;;;;44.53;20.33;;;;;;;;;;5092128;28;20196;-49
2021/01/15 07:07:49;;;;;;;36.90;19.35;;;;;;;;;;5092906;28;20178;-51
2021/01/15 07:10:15;;;;;;;37.28;20.10;;;;;;;;;;5091305;28;20177;-49
2021/01/15 07:12:42;;;;;;;38.28;21.23;;;;;;;;;;5092165;28;20218;-48
2021/01/15 07:15:11;;;;;;;37.72;20.67;;;;;;;;;;5092839;28;20249;-48
2021/01/15 07:17:38;;;;;;;35.58;20.23;;;;;;;;;;5092199;28;20257;-51
2021/01/15 07:20:07;;;;;;;39.70;23.10;;;;;;;;;;5092988;28;20181;-51
2021/01/15 07:22:38;;;;;;;40.25;21.15;;;;;;;;;;5091765;28;20206;-48
2021/01/15 07:25:05;;;;;;;39.05;21.50;;;;;;;;;;5092803;28;20208;-52
2021/01/15 07:27:31;;;;;;;41.58;20.52;;;;;;;;;;5090609;28;20181;-51
2021/01/15 07:29:57;;;;;;;40.92;21.73;;;;;;;;;;5092527;28;20252;-51
2021/01/15 07:32:25;;;;;;;40.53;20.60;;;;;;;;;;5091878;28;20205;-51
2021/01/15 07:34:52;;;;;;;36.38;19.85;;;;;;;;;;5092399;28;20189;-52
2021/01/15 07:37:19;;;;;;;39.42;20.75;;;;;;;;;;5091668;28;20178;-51
2021/01/15 07:40:05;;;;;;;39.35;20.70;;;;;;;;;;5093078;28;20166;-48
2021/01/15 07:42:46;;;;;;;41.80;22.88;;;;;;;;;;5091921;28;20274;-49
2021/01/15 07:45:27;;;;;;;39.25;21.42;;;;;;;;;;5092844;28;20158;-53
2021/01/15 07:47:54;;;;;;;36.22;19.95;;;;;;;;;;5093074;28;20279;-48
2021/01/15 07:50:30;;;;;;;42.00;20.83;;;;;;;;;;5092110;28;20165;-50
2021/01/15 07:53:05;;;;;;;36.28;20.80;;;;;;;;;;5092777;28;20275;-52
2021/01/15 07:55:44;;;;;;;38.70;20.63;;;;;;;;;;5091025;28;20176;-49
2021/01/15 07:58:10;;;;;;;39.05;20.52;;;;;;;;;;5091732;28;20585;-51
2021/01/15 08:00:36;;;;;;;34.75;20.38;;;;;;;;;;5092777;28;20181;-51
2021/01/15 08:03:02;;;;;;;32.65;18.63;;;;;;;;;;5091658;28;20200;-49
2021/01/15 08:05:28;;;;;;;33.65;19.10;;;;;;;;;;5092345;28;20551;-50
2021/01/15 08:08:15;;;;;;;41.08;21.15;;;;;;;;;;5091864;28;20181;-48
2021/01/15 08:10:45;;;;;;;43.40;22.20;;;;;;;;;;5090297;28;20676;-51
2021/01/15 08:13:18;;;;;;;30.80;17.63;;;;;;;;;;5092134;28;20219;-49
2021/01/15 08:15:44;;;;;;;29.40;18.60;;;;;;;;;;5091665;28;20202;-48
2021/01/15 08:18:10;;;;;;;30.17;17.63;;;;;;;;;;5092254;28;20185;-51
2021/01/15 08:20:37;;;;;;;35.15;17.45;;;;;;;;;;5091691;28;20174;-51
2021/01/15 08:23:03;;;;;;;34.33;18.35;;;;;;;;;;5092112;28;20535;-52
2021/01/15 08:25:29;;;;;;;35.03;20.08;;;;;;;;;;5089338;28;20661;-50
2021/01/15 08:27:56;;;;;;;34.60;19.08;;;;;;;;;;5092125;28;20169;-49
2021/01/15 08:30:22;;;;;;;29.52;16.95;;;;;;;;;;5091432;28;20185;-49
2021/01/15 08:32:48;;;;;;;33.92;18.45;;;;;;;;;;5091893;28;20543;-48
2021/01/15 08:35:34;;;;;;;34.85;18.58;;;;;;;;;;5091209;28;20169;-48
2021/01/15 08:38:03;;;;;;;34.03;19.80;;;;;;;;;;5092114;28;20172;-48
2021/01/15 08:40:30;;;;;;;35.13;18.58;;;;;;;;;;5090217;28;20257;-53
2021/01/15 08:42:58;;;;;;;35.17;18.08;;;;;;;;;;5091945;28;20191;-48
2021/01/15 08:45:28;;;;;;;31.30;16.80;;;;;;;;;;5090855;28;20188;-51
2021/01/15 08:47:55;;;;;;;33.53;19.20;;;;;;;;;;5091779;28;20247;-53
2021/01/15 08:50:22;;;;;;;32.83;20.70;;;;;;;;;;5090025;28;20324;-48
2021/01/15 08:52:48;;;;;;;30.98;19.25;;;;;;;;;;5091746;28;20807;-52
2021/01/15 08:55:15;;;;;;;31.02;17.55;;;;;;;;;;5090556;28;20170;-52
2021/01/15 08:57:41;;;;;;;30.23;17.05;;;;;;;;;;5091652;28;20249;-49
2021/01/15 09:00:08;;;;;;;35.00;17.80;;;;;;;;;;5090763;28;20174;-48
2021/01/15 09:02:36;;;;;;;30.20;17.85;;;;;;;;;;5091607;28;20186;-48
2021/01/15 09:05:03;;;;;;;29.20;18.17;;;;;;;;;;5090717;28;20186;-51
2021/01/15 09:07:29;;;;;;;29.67;16.70;;;;;;;;;;5087725;28;20282;-49
2021/01/15 09:09:57;;;;;;;30.07;19.03;;;;;;;;;;5090099;28;20686;-48
2021/01/15 09:12:25;;;;;;;37.42;18.67;;;;;;;;;;5089835;28;21050;-51
2021/01/15 09:14:51;;;;;;;28.10;18.10;;;;;;;;;;5091082;28;20169;-49
2021/01/15 09:17:17;;;;;;;35.53;17.80;;;;;;;;;;5090273;28;20191;-48
2021/01/15 09:19:43;;;;;;;28.57;16.83;;;;;;;;;;5091186;28;20628;-48
2021/01/15 09:22:17;;;;;;;27.30;16.77;;;;;;;;;;5089265;28;20452;-48
2021/01/15 09:24:43;;;;;;;33.67;19.33;;;;;;;;;;5090372;28;20458;-50
2021/01/15 09:27:10;;;;;;;33.60;18.27;;;;;;;;;;5090807;28;20200;-50
2021/01/15 09:29:38;;;;;;;27.45;15.82;;;;;;;;;;5090310;28;20451;-47
2021/01/15 09:32:04;;;;;;;24.55;15.60;;;;;;;;;;5091028;28;20242;-48
2021/01/15 09:34:30;;;;;;;27.58;17.05;;;;;;;;;;5089253;28;20190;-51
2021/01/15 09:36:57;;;;;;;27.33;17.35;;;;;;;;;;5072054;28;20230;-48
2021/01/15 09:39:24;;;;;;;29.80;17.25;;;;;;;;;;5090129;28;20219;-51
2021/01/15 09:41:51;;;;;;;28.30;16.15;;;;;;;;;;5089636;28;20186;-48
2021/01/15 09:44:18;;;;;;;28.15;17.15;;;;;;;;;;5090906;28;20173;-48
2021/01/15 09:46:45;;;;;;;28.80;18.13;;;;;;;;;;5089716;28;20171;-49
2021/01/15 09:49:11;;;;;;;30.05;16.92;;;;;;;;;;5089084;28;20170;-48
2021/01/15 09:51:37;;;;;;;31.67;16.75;;;;;;;;;;5090650;28;20218;-49
2021/01/15 09:54:03;;;;;;;29.48;16.90;;;;;;;;;;5089704;28;20838;-48
2021/01/15 09:56:30;;;;;;;27.30;18.08;;;;;;;;;;5089566;28;20212;-49
2021/01/15 09:58:57;;;;;;;28.60;15.15;;;;;;;;;;5090681;28;20187;-48
2021/01/15 10:01:24;;;;;;;32.63;18.73;;;;;;;;;;5087819;28;20209;-51
2021/01/15 10:03:50;;;;;;;28.92;18.35;;;;;;;;;;5090623;28;20166;-48
2021/01/15 10:06:17;;;;;;;28.95;17.00;;;;;;;;;;5089661;28;20526;-48
2021/01/15 10:08:43;;;;;;;28.88;17.70;;;;;;;;;;5090548;28;20170;-48
2021/01/15 10:11:10;;;;;;;28.33;16.05;;;;;;;;;;5089501;28;20696;-51
2021/01/15 10:13:36;;;;;;;30.80;17.38;;;;;;;;;;5090645;28;20301;-51
2021/01/15 10:16:05;;;;;;;29.45;17.77;;;;;;;;;;5088683;28;20184;-50
2021/01/15 10:18:31;;;;;;;26.50;16.02;;;;;;;;;;5093271;28;20181;-51
2021/01/15 10:20:57;;;;;;;31.88;16.50;;;;;;;;;;5093798;28;20214;-52
2021/01/15 10:23:23;;;;;;;28.88;16.20;;;;;;;;;;5076479;28;20194;-49
2021/01/15 10:25:49;;;;;;;26.50;14.63;;;;;;;;;;5091994;28;20185;-48
2021/01/15 10:28:15;;;;;;;28.58;16.30;;;;;;;;;;5094583;28;20440;-48
2021/01/15 10:30:45;;;;;;;27.88;16.70;;;;;;;;;;5093687;28;20262;-48
2021/01/15 10:33:11;;;;;;;27.85;15.15;;;;;;;;;;5094301;28;20679;-49
2021/01/15 10:35:37;;;;;;;22.43;13.47;;;;;;;;;;5093282;28;20202;-52
2021/01/15 10:38:03;;;;;;;32.95;17.10;;;;;;;;;;5078049;28;20452;-48
2021/01/15 10:40:29;;;;;;;32.13;15.10;;;;;;;;;;5094096;28;20165;-49
2021/01/15 10:42:55;;;;;;;23.83;14.80;;;;;;;;;;5093418;28;20457;-49
2021/01/15 10:45:21;;;;;;;24.17;14.20;;;;;;;;;;5094591;28;20405;-49
2021/01/15 10:47:47;;;;;;;25.00;15.87;;;;;;;;;;5093443;28;20396;-51
2021/01/15 10:50:14;;;;;;;21.33;13.20;;;;;;;;;;5092726;28;20846;-53
2021/01/15 10:52:40;;;;;;;24.25;14.13;;;;;;;;;;5092742;28;21060;-48
2021/01/15 10:55:06;;;;;;;24.30;13.33;;;;;;;;;;5094606;28;20162;-48
2021/01/15 10:57:32;;;;;;;22.25;12.27;;;;;;;;;;5093185;28;20420;-47
2021/01/15 10:59:58;;;;;;;23.17;12.77;;;;;;;;;;5094287;28;20532;-48
2021/01/15 11:02:24;;;;;;;16.67;11.50;;;;;;;;;;5092915;28;20531;-48
2021/01/15 11:04:50;;;;;;;22.80;12.40;;;;;;;;;;5092987;28;20428;-48
2021/01/15 11:07:16;;;;;;;17.57;10.70;;;;;;;;;;5092741;28;20461;-49
2021/01/15 11:09:42;;;;;;;22.23;12.00;;;;;;;;;;5093845;28;20901;-48
2021/01/15 11:12:08;;;;;;;20.87;12.13;;;;;;;;;;5092756;28;20494;-49
2021/01/15 11:14:36;;;;;;;19.45;11.43;;;;;;;;;;5093617;28;20402;-49
2021/01/15 11:17:02;;;;;;;16.25;11.55;;;;;;;;;;5092566;28;20208;-52
2021/01/15 11:19:28;;;;;;;16.35;11.40;;;;;;;;;;5092363;28;20614;-50
2021/01/15 11:21:54;;;;;;;15.20;10.13;;;;;;;;;;5092522;28;20269;-51
2021/01/15 11:24:20;;;;;;;15.38;9.85;;;;;;;;;;5093298;28;20411;-52
2021/01/15 11:26:46;;;;;;;21.17;11.90;;;;;;;;;;5092454;28;20180;-48
2021/01/15 11:29:13;;;;;;;15.20;10.85;;;;;;;;;;5092520;28;20400;-52
2021/01/15 11:31:42;;;;;;;22.10;10.30;;;;;;;;;;5092150;28;20217;-49
2021/01/15 11:34:08;;;;;;;17.80;10.98;;;;;;;;;;5093224;28;20203;-49
2021/01/15 11:36:34;;;;;;;16.27;10.57;;;;;;;;;;5091831;28;20183;-49
2021/01/15 11:39:03;;;;;;;16.58;10.13;;;;;;;;;;5093294;28;20177;-48
2021/01/15 11:41:29;;;;;;;16.50;10.88;;;;;;;;;;5092217;28;20225;-49
2021/01/15 11:43:55;;;;;;;16.92;10.18;;;;;;;;;;5091962;28;20187;-51
2021/01/15 11:46:21;;;;;;;14.67;9.67;;;;;;;;;;5092836;28;20174;-50
2021/01/15 11:48:48;;;;;;;18.08;11.45;;;;;;;;;;5092151;28;20428;-49
2021/01/15 11:51:14;;;;;;;15.35;10.10;;;;;;;;;;5091753;28;20179;-49
2021/01/15 11:53:40;;;;;;;16.63;9.77;;;;;;;;;;5092787;28;20206;-49
2021/01/15 11:56:07;;;;;;;18.50;10.38;;;;;;;;;;5091601;28;21087;-48
2021/01/15 11:58:34;;;;;;;15.68;9.90;;;;;;;;;;5092831;28;20169;-48
2021/01/15 12:01:00;;;;;;;14.10;9.73;;;;;;;;;;5091521;28;20263;-49
2021/01/15 12:03:26;;;;;;;11.20;8.30;;;;;;;;;;5092785;28;20254;-50
2021/01/15 12:05:52;;;;;;;15.80;10.18;;;;;;;;;;5091440;28;20424;-49
2021/01/15 12:08:19;;;;;;;12.98;9.82;;;;;;;;;;5092673;28;20790;-49
2021/01/15 12:10:45;;;;;;;17.10;10.25;;;;;;;;;;5090598;28;20229;-48
2021/01/15 12:13:11;;;;;;;17.10;11.52;;;;;;;;;;5092345;28;20251;-49
2021/01/15 12:15:37;;;;;;;14.17;9.90;;;;;;;;;;5091311;28;20213;-48
2021/01/15 12:18:03;;;;;;;18.07;11.07;;;;;;;;;;5092413;28;20488;-48
2021/01/15 12:20:35;;;;;;;17.27;10.87;;;;;;;;;;5091397;28;20426;-49
2021/01/15 12:23:01;;;;;;;19.75;9.77;;;;;;;;;;5092417;28;20707;-49
2021/01/15 12:25:27;;;;;;;16.17;10.63;;;;;;;;;;5091366;28;20631;-49
2021/01/15 12:27:54;;;;;;;21.43;10.23;;;;;;;;;;5090972;28;20433;-49
2021/01/15 12:30:20;;;;;;;14.45;9.57;;;;;;;;;;5092306;28;20429;-48
2021/01/15 12:32:48;;;;;;;18.15;10.60;;;;;;;;;;5091067;28;20675;-48
2021/01/15 12:35:14;;;;;;;20.05;11.95;;;;;;;;;;5091060;28;20177;-48
2021/01/15 12:37:40;;;;;;;21.70;10.90;;;;;;;;;;5091901;28;20253;-48
2021/01/15 12:40:07;;;;;;;18.73;11.25;;;;;;;;;;5090401;28;20838;-50
2021/01/15 12:42:33;;;;;;;17.65;10.27;;;;;;;;;;5090637;28;20286;-53
2021/01/15 12:44:59;;;;;;;20.53;10.97;;;;;;;;;;5092096;28;20254;-48
2021/01/15 12:47:25;;;;;;;17.80;11.33;;;;;;;;;;5090807;28;20432;-48
2021/01/15 12:49:51;;;;;;;18.73;12.27;;;;;;;;;;5091017;28;20489;-48
2021/01/15 12:52:20;;;;;;;20.33;12.70;;;;;;;;;;5090808;28;20460;-48
2021/01/15 12:54:46;;;;;;;21.92;12.85;;;;;;;;;;5092084;28;20403;-52
2021/01/15 12:57:12;;;;;;;22.00;12.88;;;;;;;;;;5090928;28;20550;-51
2021/01/15 12:59:38;;;;;;;19.17;11.80;;;;;;;;;;5091246;28;20171;-53
2021/01/15 13:02:04;;;;;;;19.60;10.97;;;;;;;;;;5090366;28;21020;-52
2021/01/15 13:04:30;;;;;;;16.30;11.40;;;;;;;;;;5089777;28;20493;-51
2021/01/15 13:06:56;;;;;;;17.35;10.82;;;;;;;;;;5089002;28;20183;-48
2021/01/15 13:09:22;;;;;;;15.77;10.48;;;;;;;;;;5090924;28;20251;-53
2021/01/15 13:11:49;;;;;;;16.92;10.38;;;;;;;;;;5093884;28;20222;-50
2021/01/15 13:14:14;;;;;;;15.10;9.68;;;;;;;;;;5092131;28;20199;-50
2021/01/15 13:16:40;;;;;;;20.07;12.37;;;;;;;;;;5089558;28;20229;-51
2021/01/15 13:19:06;;;;;;;17.40;10.27;;;;;;;;;;5089657;28;20428;-51
2021/01/15 13:21:32;;;;;;;19.65;10.85;;;;;;;;;;5089277;28;20445;-52
2021/01/15 13:23:58;;;;;;;15.40;10.77;;;;;;;;;;5091243;28;20171;-49
2021/01/15 13:26:25;;;;;;;22.80;11.90;;;;;;;;;;5089578;28;20487;-49
2021/01/15 13:28:51;;;;;;;24.15;12.95;;;;;;;;;;5072920;28;20465;-49
2021/01/15 13:31:16;;;;;;;24.90;12.80;;;;;;;;;;5088312;28;20183;-49
2021/01/15 13:33:43;;;;;;;23.33;13.83;;;;;;;;;;5089283;28;20485;-50
2021/01/15 13:36:09;;;;;;;30.45;14.27;;;;;;;;;;5089073;28;20420;-48
2021/01/15 13:38:36;;;;;;;23.77;14.20;;;;;;;;;;5090344;28;20183;-52
2021/01/15 13:41:02;;;;;;;26.38;13.55;;;;;;;;;;5090167;28;20639;-49
2021/01/15 13:43:29;;;;;;;25.33;16.17;;;;;;;;;;5090445;28;20202;-48
2021/01/15 13:45:55;;;;;;;30.65;16.75;;;;;;;;;;5089102;28;20170;-52
2021/01/15 13:48:21;;;;;;;33.75;16.20;;;;;;;;;;5089974;28;20687;-51
2021/01/15 13:51:12;;;;;;;26.60;17.10;;;;;;;;;;5090338;28;20223;-50
2021/01/15 13:53:36;;;;;;;28.30;15.43;;;;;;;;;;5090019;28;20214;-51
2021/01/15 13:56:02;;;;;;;29.13;15.50;;;;;;;;;;5090588;28;20170;-48
2021/01/15 13:58:28;;;;;;;36.92;17.75;;;;;;;;;;5090697;28;20461;-48
2021/01/15 14:00:54;;;;;;;30.23;16.70;;;;;;;;;;5090818;28;20249;-48
2021/01/15 14:03:20;;;;;;;29.23;17.27;;;;;;;;;;5089516;28;20975;-49
2021/01/15 14:05:46;;;;;;;34.10;17.90;;;;;;;;;;5090468;28;20396;-48
2021/01/15 14:08:12;;;;;;;41.07;19.57;;;;;;;;;;5090563;28;20483;-48
2021/01/15 14:10:38;;;;;;;31.63;19.55;;;;;;;;;;5090722;28;20429;-48
2021/01/15 14:13:04;;;;;;;33.20;19.60;;;;;;;;;;5090293;28;20996;-48
2021/01/15 14:15:31;;;;;;;30.70;18.88;;;;;;;;;;5090496;28;20531;-48
2021/01/15 14:17:57;;;;;;;29.48;15.65;;;;;;;;;;5089394;28;20710;-48
2021/01/15 14:20:23;;;;;;;26.48;16.10;;;;;;;;;;5090753;28;20191;-48
2021/01/15 14:22:48;;;;;;;29.00;15.93;;;;;;;;;;5090478;28;20708;-48